Time;durP1;ratioP1;P1;durP2;ratioP2;P2;SDS_P1;SDS_P2;PMS_P1;PMS_P2;Temp;Humidity;BMP_temperature;BMP_pressure;BME280_temperature;BME280_humidity;BME280_pressure;Samples;Min_cycle;Max_cycle;Signal;HPM_P1;HPM_P2
2023/09/27 00:02:00;;;;;;;9.25;5.82;;;;;;;15.32;100.00;97928.97;5152515;27;20022;-71
2023/09/27 00:04:26;;;;;;;12.85;6.10;;;;;;;15.23;100.00;97922.41;5154119;27;20014;-70
2023/09/27 00:06:51;;;;;;;12.38;5.93;;;;;;;15.22;100.00;97931.50;5153357;27;20031;-71
2023/09/27 00:09:17;;;;;;;19.75;6.72;;;;;;;15.23;100.00;97925.09;5134755;27;20050;-71
2023/09/27 00:11:43;;;;;;;12.25;6.80;;;;;;;15.36;100.00;97928.59;5152226;27;20018;-70
2023/09/27 00:14:09;;;;;;;12.32;6.10;;;;;;;15.33;100.00;97930.66;5151829;27;20394;-71
2023/09/27 00:16:35;;;;;;;13.73;6.60;;;;;;;15.39;100.00;97931.06;5137393;27;20038;-71
2023/09/27 00:19:01;;;;;;;15.98;6.45;;;;;;;15.41;100.00;97937.19;5132249;27;20039;-70
2023/09/27 00:21:27;;;;;;;10.98;6.40;;;;;;;15.44;100.00;97933.44;5114094;27;20470;-72
2023/09/27 00:23:52;;;;;;;19.52;5.95;;;;;;;15.40;100.00;97918.47;5148396;27;20025;-71
2023/09/27 00:26:18;;;;;;;11.70;5.70;;;;;;;15.44;100.00;97930.75;5151933;27;20030;-71
2023/09/27 00:28:43;;;;;;;14.45;5.97;;;;;;;15.39;100.00;97931.06;5153116;27;20026;-71
2023/09/27 00:31:09;;;;;;;19.73;5.80;;;;;;;15.37;100.00;97927.66;5151559;27;20046;-71
2023/09/27 00:33:34;;;;;;;10.57;5.93;;;;;;;15.31;100.00;97917.31;5152982;27;20022;-70
2023/09/27 00:36:00;;;;;;;15.45;6.00;;;;;;;15.27;100.00;97921.22;5151449;27;20083;-70
2023/09/27 00:38:26;;;;;;;13.25;6.13;;;;;;;15.28;100.00;97912.16;5151658;27;20023;-70
2023/09/27 00:40:51;;;;;;;12.77;5.88;;;;;;;15.24;100.00;97917.88;5143563;27;20019;-71
2023/09/27 00:43:30;;;;;;;10.18;5.57;;;;;;;15.22;100.00;97912.63;5130703;27;20526;-72
2023/09/27 00:46:06;;;;;;;12.40;5.68;;;;;;;15.21;100.00;97916.28;5148140;27;20453;-72
2023/09/27 00:48:32;;;;;;;14.35;5.93;;;;;;;15.23;100.00;97919.72;5151491;27;20350;-72
2023/09/27 00:50:59;;;;;;;13.18;5.28;;;;;;;15.06;100.00;97906.66;5151353;27;20042;-72
2023/09/27 00:53:27;;;;;;;18.15;5.43;;;;;;;14.99;100.00;97914.31;5151328;27;20114;-72
2023/09/27 00:55:52;;;;;;;15.43;5.57;;;;;;;14.90;100.00;97928.47;5151513;27;20446;-71
2023/09/27 00:58:19;;;;;;;10.57;6.28;;;;;;;14.90;100.00;97927.59;5151152;27;20125;-71
2023/09/27 01:00:50;;;;;;;18.02;5.30;;;;;;;14.80;100.00;97932.78;5152563;27;20018;-70
2023/09/27 01:03:16;;;;;;;7.70;5.10;;;;;;;14.91;100.00;97934.72;5152279;27;20029;-71
2023/09/27 01:05:41;;;;;;;11.73;5.30;;;;;;;14.94;100.00;97927.28;5150629;27;20023;-71
2023/09/27 01:08:08;;;;;;;13.82;5.97;;;;;;;14.86;100.00;97931.50;5152420;27;20049;-71
2023/09/27 01:10:36;;;;;;;9.52;5.53;;;;;;;14.83;100.00;97929.00;5152326;27;20034;-71
2023/09/27 01:13:03;;;;;;;10.57;5.20;;;;;;;14.76;100.00;97920.53;5151261;27;20059;-71
2023/09/27 01:15:28;;;;;;;13.50;5.15;;;;;;;14.73;100.00;97927.97;5138522;27;20024;-71
2023/09/27 01:17:59;;;;;;;16.52;5.60;;;;;;;14.72;100.00;97929.81;5146249;27;20027;-71
2023/09/27 01:20:26;;;;;;;14.95;5.20;;;;;;;14.73;100.00;97931.53;5147727;27;20058;-70
2023/09/27 01:22:58;;;;;;;8.80;4.78;;;;;;;14.76;100.00;97928.63;5145667;27;20079;-70
2023/09/27 01:25:31;;;;;;;12.82;5.88;;;;;;;14.70;100.00;97922.81;5152075;27;20029;-70
2023/09/27 01:28:04;;;;;;;12.98;4.93;;;;;;;14.75;100.00;97934.09;5150889;27;20023;-71
2023/09/27 01:30:33;;;;;;;13.02;5.97;;;;;;;14.72;100.00;97923.56;5133473;27;20038;-71
2023/09/27 01:33:07;;;;;;;14.50;5.35;;;;;;;14.65;100.00;97929.38;5134009;27;20038;-71
2023/09/27 01:35:34;;;;;;;10.48;5.22;;;;;;;14.59;100.00;97924.44;5133425;27;20023;-71
2023/09/27 01:38:00;;;;;;;10.35;5.35;;;;;;;14.62;100.00;97929.59;5150960;27;20022;-71
2023/09/27 01:40:26;;;;;;;9.95;5.50;;;;;;;14.61;100.00;97933.25;5150446;27;20440;-70
2023/09/27 01:42:53;;;;;;;10.15;5.22;;;;;;;14.69;100.00;97929.16;5150869;27;20022;-72
2023/09/27 01:45:18;;;;;;;13.63;5.88;;;;;;;14.65;100.00;97931.22;5150509;27;20034;-71
2023/09/27 01:47:44;;;;;;;8.18;4.90;;;;;;;14.67;100.00;97929.28;5150663;27;20027;-71
2023/09/27 01:50:10;;;;;;;15.98;5.45;;;;;;;14.56;100.00;97934.56;5152294;27;20019;-71
2023/09/27 01:52:35;;;;;;;10.23;5.13;;;;;;;14.55;100.00;97931.00;5141144;27;20027;-71
2023/09/27 01:55:03;;;;;;;11.85;5.30;;;;;;;14.49;100.00;97928.75;5112601;28;20039;-71
2023/09/27 01:57:28;;;;;;;9.35;4.55;;;;;;;14.46;100.00;97928.97;5131919;27;20063;-71
2023/09/27 01:59:54;;;;;;;10.85;5.05;;;;;;;14.33;100.00;97933.53;5150552;27;20019;-71
2023/09/27 02:02:19;;;;;;;10.60;5.47;;;;;;;14.43;100.00;97928.34;5150328;27;20014;-71
2023/09/27 02:04:45;;;;;;;11.98;5.45;;;;;;;14.50;100.00;97930.50;5150686;27;20022;-71
2023/09/27 02:07:11;;;;;;;10.75;5.40;;;;;;;14.46;100.00;97933.50;5133280;27;20031;-71
2023/09/27 02:09:36;;;;;;;8.13;4.95;;;;;;;14.44;100.00;97939.00;5150194;27;20023;-71
2023/09/27 02:12:02;;;;;;;9.10;5.18;;;;;;;14.35;100.00;97931.59;5151881;27;20080;-72
2023/09/27 02:14:28;;;;;;;18.15;5.07;;;;;;;14.30;100.00;97922.97;5151641;27;20023;-72
2023/09/27 02:16:53;;;;;;;10.70;5.68;;;;;;;14.34;100.00;97934.38;5153709;27;20015;-71
2023/09/27 02:19:19;;;;;;;7.78;4.90;;;;;;;14.32;100.00;97929.09;5136451;27;20038;-71
2023/09/27 02:21:44;;;;;;;12.27;5.45;;;;;;;14.31;100.00;97932.72;5153272;27;20023;-71
2023/09/27 02:24:10;;;;;;;14.98;5.70;;;;;;;14.21;100.00;97934.38;5155649;27;20448;-71
2023/09/27 02:26:36;;;;;;;10.57;5.45;;;;;;;14.24;100.00;97944.91;5155250;27;20462;-71
2023/09/27 02:29:02;;;;;;;13.35;6.45;;;;;;;14.14;100.00;97943.84;5155786;27;20378;-71
2023/09/27 02:31:27;;;;;;;27.40;9.80;;;;;;;14.06;100.00;97936.28;5153989;27;20525;-72
2023/09/27 02:33:53;;;;;;;39.03;18.48;;;;;;;13.98;100.00;97943.16;5136615;27;20109;-71
2023/09/27 02:36:18;;;;;;;45.42;17.60;;;;;;;14.01;100.00;97943.81;5136834;27;20458;-72
2023/09/27 02:38:44;;;;;;;35.80;17.67;;;;;;;13.89;100.00;97946.50;5154049;27;20387;-71
2023/09/27 02:41:09;;;;;;;33.55;16.10;;;;;;;13.82;100.00;97937.97;5153951;27;20045;-70
2023/09/27 02:43:35;;;;;;;28.25;13.20;;;;;;;13.87;100.00;97940.38;5154892;27;20034;-72
2023/09/27 02:46:04;;;;;;;26.13;13.18;;;;;;;13.84;100.00;97946.78;5136695;27;20383;-71
2023/09/27 02:48:29;;;;;;;28.35;12.60;;;;;;;13.87;100.00;97956.50;5154861;27;20042;-72
2023/09/27 02:50:57;;;;;;;23.52;8.10;;;;;;;13.86;100.00;97952.09;5153662;27;20019;-71
2023/09/27 02:53:23;;;;;;;16.45;7.57;;;;;;;13.78;100.00;97947.22;5154547;27;20106;-70
2023/09/27 02:55:48;;;;;;;13.20;6.75;;;;;;;13.71;100.00;97951.31;5153703;27;20109;-70
2023/09/27 02:58:15;;;;;;;19.27;6.93;;;;;;;13.70;100.00;97954.09;5153880;27;20466;-71
2023/09/27 03:00:41;;;;;;;9.30;5.68;;;;;;;13.72;100.00;97955.69;5131303;27;20031;-72
2023/09/27 03:03:08;;;;;;;17.77;6.03;;;;;;;13.82;100.00;97958.63;5131288;27;20107;-71
2023/09/27 03:05:37;;;;;;;13.23;6.07;;;;;;;13.87;100.00;97957.34;5136207;27;20023;-72
2023/09/27 03:08:04;;;;;;;12.93;6.07;;;;;;;13.95;100.00;97951.44;5153403;27;20496;-72
2023/09/27 03:10:29;;;;;;;12.57;5.70;;;;;;;14.03;100.00;97957.16;5117113;27;20336;-72
2023/09/27 03:12:55;;;;;;;10.70;5.78;;;;;;;14.04;100.00;97953.50;5152178;27;20034;-72
2023/09/27 03:15:21;;;;;;;14.35;5.50;;;;;;;14.10;100.00;97953.94;5153033;27;20026;-72
2023/09/27 03:17:47;;;;;;;16.33;5.95;;;;;;;14.20;100.00;97959.53;5154456;27;20375;-72
2023/09/27 03:20:16;;;;;;;12.82;4.90;;;;;;;14.24;100.00;97962.88;5154388;27;20490;-72
2023/09/27 03:22:46;;;;;;;11.82;5.55;;;;;;;14.22;100.00;97956.72;5152611;27;20033;-71
2023/09/27 03:25:12;;;;;;;80.57;35.38;;;;;;;14.24;100.00;97960.19;5135858;27;20481;-71
2023/09/27 03:27:38;;;;;;;82.68;41.00;;;;;;;14.27;100.00;97960.84;5152265;27;20022;-71
2023/09/27 03:30:07;;;;;;;58.33;25.75;;;;;;;14.31;100.00;97967.72;5152841;27;20058;-71
2023/09/27 03:32:32;;;;;;;35.22;16.33;;;;;;;14.33;100.00;97973.91;5152257;27;20073;-72
2023/09/27 03:34:59;;;;;;;59.83;28.55;;;;;;;14.29;100.00;97971.50;5119092;27;20050;-71
2023/09/27 03:37:25;;;;;;;24.02;12.35;;;;;;;14.27;100.00;97973.44;5149184;27;20019;-72
2023/09/27 03:39:52;;;;;;;23.73;14.13;;;;;;;14.25;100.00;97976.22;5152667;27;20037;-72
2023/09/27 03:42:21;;;;;;;29.17;14.15;;;;;;;14.21;100.00;97974.72;5139672;27;20023;-71
2023/09/27 03:44:50;;;;;;;27.98;16.17;;;;;;;14.11;100.00;97976.34;5131876;27;20019;-72
2023/09/27 03:47:15;;;;;;;26.23;14.07;;;;;;;14.17;100.00;97980.41;5115397;27;20380;-72
2023/09/27 03:49:41;;;;;;;28.63;14.55;;;;;;;14.18;100.00;97974.91;5131745;27;20041;-72
2023/09/27 03:52:08;;;;;;;39.15;12.80;;;;;;;14.22;100.00;97968.34;5114557;27;20509;-71
2023/09/27 03:54:33;;;;;;;27.23;13.82;;;;;;;14.37;100.00;97977.22;5149398;27;20407;-71
2023/09/27 03:56:59;;;;;;;24.20;12.98;;;;;;;14.44;100.00;97974.00;5152498;27;20018;-72
2023/09/27 03:59:25;;;;;;;24.80;14.75;;;;;;;14.43;100.00;97969.56;5152402;27;20447;-77
2023/09/27 04:01:51;;;;;;;37.38;17.02;;;;;;;14.42;100.00;97967.00;5152011;27;20026;-72
2023/09/27 04:04:17;;;;;;;32.45;16.85;;;;;;;14.43;100.00;97977.66;5153254;27;20462;-72
2023/09/27 04:06:43;;;;;;;28.40;15.73;;;;;;;14.38;100.00;97978.94;5152106;27;20029;-71
2023/09/27 04:09:09;;;;;;;24.60;12.63;;;;;;;14.35;100.00;97984.53;5134844;27;20117;-71
2023/09/27 04:11:36;;;;;;;19.50;11.85;;;;;;;14.32;100.00;97988.28;5137200;27;20478;-71
2023/09/27 04:14:02;;;;;;;25.42;12.32;;;;;;;14.33;100.00;97987.34;5149776;27;20182;-71
2023/09/27 04:16:30;;;;;;;22.92;10.73;;;;;;;14.28;100.00;97986.78;5151981;27;20455;-70
2023/09/27 04:18:58;;;;;;;21.63;11.82;;;;;;;14.22;100.00;97983.63;5151526;27;20099;-70
2023/09/27 04:21:27;;;;;;;25.08;12.45;;;;;;;14.10;100.00;97991.59;5151985;27;20470;-71
2023/09/27 04:23:56;;;;;;;25.05;13.27;;;;;;;14.11;100.00;97990.66;5151830;27;20394;-71
2023/09/27 04:26:23;;;;;;;23.80;13.23;;;;;;;13.97;100.00;97989.84;5136504;27;20018;-71
2023/09/27 04:28:53;;;;;;;29.33;12.60;;;;;;;13.96;100.00;97989.00;5130926;27;20126;-71
2023/09/27 04:31:19;;;;;;;27.48;13.10;;;;;;;13.90;100.00;97989.44;5134276;27;20550;-71
2023/09/27 04:33:47;;;;;;;20.83;11.70;;;;;;;13.90;100.00;97996.63;5134164;27;20022;-71
2023/09/27 04:36:16;;;;;;;28.02;12.18;;;;;;;13.92;100.00;97990.19;5137730;27;20054;-71
2023/09/27 04:38:43;;;;;;;44.35;13.15;;;;;;;13.97;100.00;97998.78;5122670;27;20396;-73
2023/09/27 04:41:09;;;;;;;22.65;13.57;;;;;;;14.03;100.00;97992.13;5132606;27;20023;-71
2023/09/27 04:43:35;;;;;;;51.95;14.15;;;;;;;14.07;100.00;97997.19;5146050;27;20379;-71
2023/09/27 04:46:00;;;;;;;33.42;13.35;;;;;;;14.10;100.00;98002.38;5151163;27;20022;-72
2023/09/27 04:48:26;;;;;;;30.10;12.07;;;;;;;14.16;100.00;98005.59;5136254;27;20474;-72
2023/09/27 04:50:52;;;;;;;30.67;12.45;;;;;;;14.15;100.00;97998.50;5130754;27;20031;-71
2023/09/27 04:53:17;;;;;;;21.45;10.88;;;;;;;14.26;100.00;98002.16;5144839;27;20076;-71
2023/09/27 04:55:43;;;;;;;24.75;12.00;;;;;;;14.30;100.00;98003.69;5133547;27;20102;-71
2023/09/27 04:58:09;;;;;;;25.42;10.70;;;;;;;14.41;100.00;97998.44;5151465;27;20050;-72
2023/09/27 05:00:34;;;;;;;26.98;9.55;;;;;;;14.55;100.00;98003.69;5139062;27;20442;-71
2023/09/27 05:03:00;;;;;;;33.83;9.68;;;;;;;14.69;100.00;97991.09;5131394;27;20022;-71
2023/09/27 05:05:26;;;;;;;20.30;8.98;;;;;;;14.69;100.00;97999.19;5133909;27;20022;-70
2023/09/27 05:07:52;;;;;;;16.45;8.05;;;;;;;14.90;100.00;98014.66;5149851;27;20333;-71
2023/09/27 05:10:17;;;;;;;16.63;8.40;;;;;;;15.20;100.00;98011.56;5148644;27;20049;-70
2023/09/27 05:12:43;;;;;;;26.80;9.43;;;;;;;15.39;100.00;98003.88;5128663;27;20026;-71
2023/09/27 05:15:09;;;;;;;24.10;9.85;;;;;;;15.63;100.00;98002.06;5149983;27;20023;-71
2023/09/27 05:17:35;;;;;;;22.60;9.88;;;;;;;16.01;100.00;97999.16;5127393;27;20030;-71
2023/09/27 05:20:06;;;;;;;18.35;8.32;;;;;;;16.19;100.00;97995.06;5150391;27;20042;-72
2023/09/27 05:22:31;;;;;;;17.33;8.20;;;;;;;16.66;100.00;97994.06;5134230;27;20113;-71
2023/09/27 05:24:57;;;;;;;16.38;7.28;;;;;;;17.14;100.00;97986.56;5152124;27;20151;-71
2023/09/27 05:27:23;;;;;;;20.40;7.75;;;;;;;17.81;100.00;97987.28;5149489;27;20023;-71
2023/09/27 05:29:49;;;;;;;22.63;8.80;;;;;;;18.48;100.00;97976.09;5133430;27;20505;-71
2023/09/27 05:32:14;;;;;;;24.25;8.10;;;;;;;19.18;100.00;97978.03;5141016;27;20023;-71
2023/09/27 05:34:40;;;;;;;20.73;6.97;;;;;;;19.69;100.00;97958.88;5144297;27;20015;-71
2023/09/27 05:37:05;;;;;;;17.40;6.50;;;;;;;19.77;100.00;97965.31;5149971;27;20151;-72
2023/09/27 05:39:31;;;;;;;20.77;6.40;;;;;;;20.12;100.00;97977.50;5132784;27;20030;-71
2023/09/27 05:41:57;;;;;;;15.98;7.85;;;;;;;20.54;100.00;97970.72;5150727;27;20130;-71
2023/09/27 05:44:22;;;;;;;28.83;8.23;;;;;;;20.71;100.00;97975.41;5133117;27;20546;-71
2023/09/27 05:46:48;;;;;;;16.00;7.38;;;;;;;20.82;100.00;97979.81;5133294;27;20478;-71
2023/09/27 05:49:15;;;;;;;22.20;7.90;;;;;;;21.19;100.00;97974.41;5141866;27;20026;-72
2023/09/27 05:51:41;;;;;;;20.92;7.05;;;;;;;21.94;100.00;97969.50;5153614;27;20018;-71
2023/09/27 05:54:07;;;;;;;12.93;5.85;;;;;;;22.03;100.00;97975.88;5138144;27;20039;-71
2023/09/27 05:56:37;;;;;;;25.35;14.70;;;;;;;22.64;100.00;97973.19;5134822;27;20019;-72
2023/09/27 05:59:11;;;;;;;13.57;5.20;;;;;;;23.20;100.00;97969.94;5150972;27;20075;-72
2023/09/27 06:01:37;;;;;;;24.38;6.07;;;;;;;23.57;100.00;97969.59;5154623;27;20111;-71
2023/09/27 06:04:03;;;;;;;15.45;5.85;;;;;;;23.97;100.00;97969.72;5154509;27;20080;-71
2023/09/27 06:06:29;;;;;;;13.07;5.30;;;;;;;24.28;98.97;97964.47;5152221;27;20023;-71
2023/09/27 06:08:55;;;;;;;14.00;4.93;;;;;;;24.70;92.37;97959.66;5142608;27;20033;-71
2023/09/27 06:11:20;;;;;;;15.98;5.22;;;;;;;25.13;88.11;97966.59;5145349;27;20030;-71
2023/09/27 06:13:46;;;;;;;22.30;6.00;;;;;;;24.37;91.93;97973.53;5154392;27;20022;-71
2023/09/27 06:16:13;;;;;;;11.05;4.60;;;;;;;24.55;92.08;97972.31;5154324;27;20030;-71
2023/09/27 06:18:39;;;;;;;13.90;5.35;;;;;;;24.76;88.39;97980.03;5125838;27;20062;-72
2023/09/27 06:21:04;;;;;;;10.90;4.97;;;;;;;25.35;84.18;97968.59;5133557;27;20019;-71
2023/09/27 06:23:30;;;;;;;16.38;6.63;;;;;;;25.54;82.43;97972.81;5134549;27;20022;-73
2023/09/27 06:25:56;;;;;;;14.90;5.88;;;;;;;25.31;83.78;97974.63;5148903;27;20025;-72
2023/09/27 06:28:21;;;;;;;20.50;8.02;;;;;;;25.42;83.00;97971.47;5136283;27;20054;-72
2023/09/27 06:30:47;;;;;;;25.33;12.60;;;;;;;25.89;79.45;97968.69;5147252;27;20467;-72
2023/09/27 06:33:12;;;;;;;9.75;5.65;;;;;;;26.03;75.02;97959.69;5155113;27;20026;-71
2023/09/27 06:35:39;;;;;;;23.13;13.18;;;;;;;25.92;73.76;97968.34;5134470;27;20019;-71
2023/09/27 06:38:05;;;;;;;22.38;6.05;;;;;;;25.17;77.01;97967.97;5134657;27;20015;-71
2023/09/27 06:40:31;;;;;;;12.38;5.03;;;;;;;26.01;70.19;97969.13;5125579;27;20034;-71
2023/09/27 06:42:57;;;;;;;23.40;5.30;;;;;;;26.13;63.71;97962.19;5130788;27;20078;-71
2023/09/27 06:45:22;;;;;;;44.15;21.45;;;;;;;26.24;65.90;97967.31;5134841;27;20030;-70
2023/09/27 06:47:48;;;;;;;18.00;6.25;;;;;;;26.17;62.89;97961.69;5153712;27;20023;-71
2023/09/27 06:50:17;;;;;;;16.70;4.80;;;;;;;26.47;61.23;97950.81;5136445;27;20065;-72
2023/09/27 06:52:42;;;;;;;29.90;9.55;;;;;;;26.99;60.57;97959.94;5124252;27;20031;-71
2023/09/27 06:55:13;;;;;;;19.50;7.03;;;;;;;27.15;58.65;97970.75;5140604;27;20031;-72
2023/09/27 06:57:39;;;;;;;13.45;5.20;;;;;;;27.34;57.22;97964.72;5153419;27;20188;-71
2023/09/27 07:00:18;;;;;;;16.95;7.35;;;;;;;26.51;61.63;97979.59;5153682;27;20053;-71
2023/09/27 07:02:50;;;;;;;12.75;4.57;;;;;;;26.76;60.99;97972.88;5136649;27;20019;-70
2023/09/27 07:05:16;;;;;;;12.07;4.72;;;;;;;26.30;63.04;97972.88;5133804;27;20022;-71
2023/09/27 07:07:43;;;;;;;14.13;4.45;;;;;;;26.68;61.16;97973.78;5135838;27;20026;-70
2023/09/27 07:10:09;;;;;;;9.15;4.63;;;;;;;26.29;64.68;97976.69;5150656;27;20023;-71
2023/09/27 07:12:35;;;;;;;11.27;4.88;;;;;;;26.59;64.13;97985.88;5144526;27;20059;-72
2023/09/27 07:15:23;;;;;;;20.88;4.78;;;;;;;26.57;63.62;97978.88;5153407;27;20023;-71
2023/09/27 07:17:48;;;;;;;14.60;5.35;;;;;;;26.61;64.99;97983.78;5138457;27;20023;-70
2023/09/27 07:22:44;;;;;;;10.30;5.18;;;;;;;26.55;64.24;97980.94;5141700;27;20098;-71
2023/09/27 07:25:16;;;;;;;13.07;5.07;;;;;;;27.19;61.51;97974.84;5153052;27;20014;-71
2023/09/27 07:27:43;;;;;;;17.00;5.22;;;;;;;28.04;57.26;97975.13;5125315;27;20030;-71
2023/09/27 07:30:17;;;;;;;16.25;4.97;;;;;;;28.56;53.79;97961.09;5138468;27;20026;-71
2023/09/27 07:32:44;;;;;;;16.00;4.75;;;;;;;28.52;54.03;97968.88;5150347;27;20030;-71
2023/09/27 07:35:11;;;;;;;12.40;5.05;;;;;;;29.34;50.42;97963.66;5123386;27;20567;-71
2023/09/27 07:37:37;;;;;;;10.65;4.88;;;;;;;29.18;49.59;97958.44;5150872;27;20083;-70
2023/09/27 07:40:09;;;;;;;12.80;4.55;;;;;;;29.39;48.21;97966.66;5144973;27;20034;-71
2023/09/27 07:42:44;;;;;;;12.57;4.82;;;;;;;29.56;48.08;97962.50;5118883;27;20050;-71
2023/09/27 07:45:21;;;;;;;6.93;4.70;;;;;;;30.34;45.85;97954.72;5152388;27;20073;-72
2023/09/27 07:47:50;;;;;;;29.90;6.53;;;;;;;30.77;45.67;97957.97;5129836;27;20499;-70
2023/09/27 07:50:19;;;;;;;12.65;4.90;;;;;;;31.22;43.42;97946.09;5145869;27;20080;-70
2023/09/27 07:52:46;;;;;;;19.35;5.40;;;;;;;30.61;44.80;97962.88;5132955;27;20035;-72
2023/09/27 07:55:14;;;;;;;21.10;4.65;;;;;;;30.31;45.29;97952.38;5133490;27;20115;-71
2023/09/27 07:57:43;;;;;;;15.43;4.55;;;;;;;30.11;45.91;97955.13;5150676;27;20395;-73
2023/09/27 08:00:10;;;;;;;12.45;4.50;;;;;;;29.74;47.04;97953.69;5135498;27;20114;-70
2023/09/27 08:02:38;;;;;;;15.25;6.82;;;;;;;29.65;47.31;97959.56;5127760;27;20047;-70
2023/09/27 08:05:09;;;;;;;9.50;4.35;;;;;;;30.02;46.14;97967.41;5118801;27;20019;-71
2023/09/27 08:07:38;;;;;;;8.90;3.97;;;;;;;30.55;45.22;97952.66;5115146;27;20510;-71
2023/09/27 08:10:05;;;;;;;6.25;4.00;;;;;;;30.58;44.39;97951.38;5148602;27;20019;-71
2023/09/27 08:12:32;;;;;;;14.00;4.63;;;;;;;30.92;44.02;97951.19;5118423;27;20100;-71
2023/09/27 08:14:59;;;;;;;7.47;4.40;;;;;;;30.83;44.04;97959.88;5126599;27;20027;-71
2023/09/27 08:17:26;;;;;;;10.60;4.40;;;;;;;31.72;42.95;97951.94;5132803;27;20034;-70
2023/09/27 08:19:51;;;;;;;10.40;4.22;;;;;;;32.81;40.72;97933.19;5147505;27;20104;-70
2023/09/27 08:22:17;;;;;;;13.55;4.20;;;;;;;33.23;39.80;97937.94;5134643;27;20023;-70
2023/09/27 08:24:45;;;;;;;12.45;4.53;;;;;;;32.78;40.21;97928.09;5114184;27;20492;-70
2023/09/27 08:27:11;;;;;;;14.45;3.95;;;;;;;32.61;39.98;97934.19;5147477;27;20053;-71
2023/09/27 08:29:36;;;;;;;7.28;4.35;;;;;;;32.63;40.34;97933.97;5151671;27;20066;-70
2023/09/27 08:32:02;;;;;;;8.18;4.45;;;;;;;32.21;41.14;97935.50;5153059;27;20023;-72
2023/09/27 08:34:28;;;;;;;7.45;3.90;;;;;;;32.21;40.87;97935.50;5151718;27;20065;-70
2023/09/27 08:36:53;;;;;;;15.07;4.78;;;;;;;32.09;40.67;97928.97;5142336;27;20027;-71
2023/09/27 08:39:19;;;;;;;11.85;4.35;;;;;;;31.89;41.78;97933.75;5126641;27;20500;-71
2023/09/27 08:41:44;;;;;;;9.35;4.22;;;;;;;31.49;41.97;97930.28;5153004;27;20095;-71
2023/09/27 08:44:13;;;;;;;6.28;4.10;;;;;;;31.52;42.03;97929.84;5134059;27;20034;-70
2023/09/27 08:46:39;;;;;;;12.52;4.60;;;;;;;30.96;42.89;97932.28;5151577;27;20031;-71
2023/09/27 08:49:06;;;;;;;18.15;4.75;;;;;;;31.24;42.59;97929.25;5151594;27;20559;-70
2023/09/27 08:51:32;;;;;;;9.23;4.03;;;;;;;31.09;43.53;97944.19;5137072;27;20391;-72
2023/09/27 08:53:57;;;;;;;13.25;4.47;;;;;;;31.66;42.53;97940.66;5148599;27;20095;-70
2023/09/27 08:56:23;;;;;;;11.30;3.83;;;;;;;31.26;42.56;97939.03;5133931;27;20079;-70
2023/09/27 08:58:49;;;;;;;11.23;4.22;;;;;;;31.05;43.15;97931.00;5134821;27;20031;-71
2023/09/27 09:01:16;;;;;;;13.15;4.07;;;;;;;31.83;41.96;97923.56;5142068;27;20026;-70
2023/09/27 09:03:42;;;;;;;11.73;4.20;;;;;;;32.49;41.09;97921.25;5151134;27;20032;-70
2023/09/27 09:06:11;;;;;;;10.23;4.03;;;;;;;32.96;40.65;97915.13;5129637;27;20027;-71
2023/09/27 09:08:41;;;;;;;11.00;4.78;;;;;;;32.71;39.94;97917.91;5124032;27;20038;-71
2023/09/27 09:11:10;;;;;;;15.68;4.38;;;;;;;33.56;39.36;97902.31;5149078;27;20038;-70
2023/09/27 09:13:56;;;;;;;8.07;4.53;;;;;;;33.45;39.52;97908.66;5152602;27;20495;-70
2023/09/27 09:16:23;;;;;;;7.88;4.28;;;;;;;33.40;39.13;97911.28;5150978;27;20034;-70
2023/09/27 09:18:52;;;;;;;8.95;3.60;;;;;;;33.96;38.67;97907.44;5134902;27;20035;-70
2023/09/27 09:21:21;;;;;;;9.70;3.65;;;;;;;34.83;37.48;97901.19;5139042;27;20023;-71
2023/09/27 09:23:49;;;;;;;12.30;4.05;;;;;;;34.69;37.27;97903.38;5146524;27;20386;-71
2023/09/27 09:26:28;;;;;;;10.82;3.83;;;;;;;35.27;36.74;97903.41;5137331;27;20019;-71
2023/09/27 09:28:56;;;;;;;6.25;3.72;;;;;;;35.24;36.24;97891.91;5133688;27;20386;-71
2023/09/27 09:31:22;;;;;;;11.45;4.07;;;;;;;34.77;37.17;97889.09;5146551;27;20113;-71
2023/09/27 09:34:04;;;;;;;10.50;3.45;;;;;;;34.63;36.88;97884.00;5150663;27;20019;-71
2023/09/27 09:36:30;;;;;;;18.73;3.72;;;;;;;35.14;36.34;97884.19;5152200;27;20078;-72
2023/09/27 09:39:06;;;;;;;17.45;3.55;;;;;;;35.69;35.89;97881.81;5150788;27;20109;-72
2023/09/27 09:41:48;;;;;;;9.05;3.75;;;;;;;35.44;35.88;97869.28;5146515;27;20063;-72
2023/09/27 09:44:19;;;;;;;11.95;3.90;;;;;;;36.11;34.99;97868.50;5142052;27;20023;-70
2023/09/27 09:46:46;;;;;;;16.55;3.65;;;;;;;35.19;36.21;97866.78;5133470;27;20031;-72
2023/09/27 09:49:17;;;;;;;14.45;4.70;;;;;;;35.23;36.10;97877.16;5146425;27;20555;-71
2023/09/27 09:51:47;;;;;;;8.57;3.75;;;;;;;34.40;37.42;97862.53;5133928;27;20401;-70
2023/09/27 09:54:16;;;;;;;16.30;4.35;;;;;;;34.91;36.07;97863.84;5115208;27;20100;-71
2023/09/27 09:56:43;;;;;;;23.73;7.32;;;;;;;34.51;36.83;97867.28;5138636;27;20027;-71
2023/09/27 09:59:13;;;;;;;12.95;4.45;;;;;;;34.36;36.95;97864.13;5147451;27;20035;-71
2023/09/27 10:01:40;;;;;;;21.48;5.50;;;;;;;34.21;38.19;97860.91;5116487;27;20023;-71
2023/09/27 10:04:07;;;;;;;10.63;4.15;;;;;;;33.44;39.43;97858.97;5121151;27;20030;-71
2023/09/27 10:06:33;;;;;;;14.55;3.55;;;;;;;33.06;40.11;97860.00;5150597;27;20105;-71
2023/09/27 10:09:01;;;;;;;18.02;4.57;;;;;;;33.52;39.15;97859.50;5113139;27;20087;-70
2023/09/27 10:11:27;;;;;;;17.13;3.97;;;;;;;34.63;37.89;97854.28;5119403;27;20344;-71
2023/09/27 10:13:53;;;;;;;10.73;4.07;;;;;;;33.12;39.33;97852.72;5151719;27;20086;-71
2023/09/27 10:16:22;;;;;;;8.85;4.40;;;;;;;31.47;42.30;97847.47;5150420;27;20030;-70
2023/09/27 10:18:48;;;;;;;11.20;4.07;;;;;;;31.84;42.40;97853.31;5150368;27;20051;-70
2023/09/27 10:21:14;;;;;;;7.63;4.13;;;;;;;31.50;42.64;97851.78;5150323;27;20394;-70
2023/09/27 10:23:46;;;;;;;13.85;4.40;;;;;;;32.42;42.13;97849.28;5133584;27;20023;-71
2023/09/27 10:26:27;;;;;;;;;;;;;;;33.82;39.28;97840.09;5127984;27;20027;-71
2023/09/27 10:29:07;;;;;;;21.10;4.07;;;;;;;34.77;37.15;97839.03;5130885;27;19911;-71
2023/09/27 10:31:38;;;;;;;9.75;3.70;;;;;;;34.50;37.03;97820.25;5133723;27;20041;-71
2023/09/27 10:34:27;;;;;;;11.75;3.75;;;;;;;32.51;38.83;97825.78;5150249;27;20035;-71
2023/09/27 10:36:54;;;;;;;14.70;3.63;;;;;;;31.30;40.92;97826.94;5151525;27;20019;-70
2023/09/27 10:39:20;;;;;;;14.55;4.10;;;;;;;31.96;40.91;97818.31;5151282;27;20023;-70
2023/09/27 10:41:49;;;;;;;19.42;4.53;;;;;;;32.31;41.01;97827.84;5149894;27;20067;-72
2023/09/27 10:44:28;;;;;;;22.85;4.25;;;;;;;31.38;41.63;97818.38;5134525;27;20148;-71
2023/09/27 10:46:54;;;;;;;17.02;4.68;;;;;;;30.83;42.87;97814.28;5149898;27;20126;-71
2023/09/27 10:49:20;;;;;;;15.07;4.07;;;;;;;30.15;44.29;97823.88;5136264;27;20119;-70
2023/09/27 10:51:46;;;;;;;13.48;3.97;;;;;;;29.69;45.56;97823.78;5152863;27;20040;-71
2023/09/27 10:54:13;;;;;;;16.08;4.13;;;;;;;29.38;47.25;97824.34;5136606;27;20490;-71
2023/09/27 10:56:43;;;;;;;10.52;4.10;;;;;;;29.09;46.81;97819.09;5116284;27;20034;-71
2023/09/27 10:59:08;;;;;;;19.63;4.47;;;;;;;29.16;47.27;97817.25;5148629;27;20018;-69
2023/09/27 11:01:35;;;;;;;20.13;3.90;;;;;;;29.60;46.38;97816.75;5153185;27;20034;-69
2023/09/27 11:04:02;;;;;;;15.95;4.28;;;;;;;30.21;44.96;97817.50;5132077;27;20119;-70
2023/09/27 11:06:29;;;;;;;10.40;4.00;;;;;;;29.87;45.98;97803.94;5115412;27;20135;-71
2023/09/27 11:09:08;;;;;;;10.88;4.07;;;;;;;29.62;47.24;97800.03;5135930;27;20489;-70
2023/09/27 11:11:34;;;;;;;12.90;4.32;;;;;;;29.88;46.75;97800.94;5154110;27;20418;-71
2023/09/27 11:14:00;;;;;;;17.55;4.10;;;;;;;30.38;45.85;97802.22;5146449;27;20029;-71
2023/09/27 11:16:25;;;;;;;16.42;4.82;;;;;;;30.75;45.11;97794.34;5153187;27;20027;-70
2023/09/27 11:18:51;;;;;;;10.50;4.15;;;;;;;30.62;44.80;97790.53;5141558;27;20107;-71
2023/09/27 11:21:18;;;;;;;12.82;4.30;;;;;;;30.93;44.79;97789.81;5131416;27;20031;-71
2023/09/27 11:24:10;;;;;;;9.43;3.95;;;;;;;30.46;45.32;97785.47;5144440;27;20562;-71
2023/09/27 11:26:35;;;;;;;10.60;4.97;;;;;;;30.09;46.27;97786.94;5119232;27;20026;-71